| time (UTC) | temp C | wind direction | speed KPH | gust KPH | rain 1hr cm | rain 24hr cm | rain mn cm | humidity % | barometer mb |
| 20260510034226 | 23 | 119 | 3.2 | 9.7 | 0.00 | 0.03 | 0.03 | 78 | 1020.4 |
| 20260510031226 | 22 | 135 | 3.2 | 9.7 | 0.00 | 0.03 | 0.03 | 81 | 1020.6 |
| 20260510024226 | 23 | 141 | 6.4 | 14.5 | 0.00 | 0.03 | 0.03 | 75 | 1020.9 |
| 20260510021226 | 23 | 142 | 6.4 | 14.5 | 0.00 | 0.03 | 0.03 | 79 | 1021.1 |
| 20260510014226 | 22 | 148 | 4.8 | 9.7 | 0.00 | 0.03 | 0.03 | 83 | 1021.5 |
| 20260510011226 | 22 | 135 | 4.8 | 11.3 | 0.00 | 0.00 | 0.00 | 80 | 1022.0 |
| 20260510004226 | 21 | 162 | 4.8 | 11.3 | 0.00 | 0.00 | 0.00 | 83 | 1021.9 |
| 20260510001226 | 20 | 151 | 4.8 | 11.3 | 0.00 | 0.00 | 0.00 | 83 | 1022.0 |
| 20260509234226 | 21 | 167 | 6.4 | 12.9 | 0.00 | 0.00 | 0.00 | 84 | 1022.1 |
| 20260509231226 | 20 | 160 | 3.2 | 8.0 | 0.00 | 0.00 | 0.00 | 86 | 1022.0 |
| 20260509224226 | 20 | 172 | 4.8 | 12.9 | 0.00 | 0.00 | 0.00 | 86 | 1021.9 |
| 20260509221226 | 18 | 168 | 4.8 | 12.9 | 0.00 | 0.00 | 0.00 | 86 | 1021.5 |
| 20260509214226 | 17 | 169 | 4.8 | 8.0 | 0.00 | 0.00 | 0.00 | 90 | 1021.5 |
| 20260509211226 | 16 | 180 | 3.2 | 8.0 | 0.00 | 0.00 | 0.00 | 91 | 1021.1 |
| 20260509204226 | 16 | 177 | 3.2 | 6.4 | 0.00 | 0.00 | 0.00 | 91 | 1020.5 |
| 20260509201226 | 16 | 162 | 4.8 | 9.7 | 0.00 | 0.00 | 0.00 | 89 | 1020.0 |
| 20260509194226 | 15 | 177 | 3.2 | 6.4 | 0.00 | 0.00 | 0.00 | 88 | 1019.8 |
| 20260509191226 | 15 | 167 | 3.2 | 9.7 | 0.00 | 0.00 | 0.00 | 88 | 1019.3 |
| 20260509184226 | 15 | 188 | 1.6 | 6.4 | 0.00 | 0.00 | 0.00 | 88 | 1019.3 |
| 20260509181226 | 16 | 171 | 4.8 | 9.7 | 0.00 | 0.00 | 0.00 | 87 | 1019.1 |
| 20260509174226 | 16 | 171 | 3.2 | 6.4 | 0.00 | 0.00 | 0.00 | 87 | 1019.1 |
| 20260509171226 | 16 | 160 | 1.6 | 6.4 | 0.00 | 0.00 | 0.00 | 87 | 1019.1 |
| 20260509164226 | 16 | 180 | 1.6 | 6.4 | 0.00 | 0.00 | 0.00 | 87 | 1019.4 |
| 20260509161226 | 16 | 181 | 1.6 | 4.8 | 0.00 | 0.00 | 0.00 | 86 | 1019.6 |
| 20260509154226 | 16 | 169 | 1.6 | 4.8 | 0.00 | 0.00 | 0.00 | 86 | 1019.7 |
| 20260509151226 | 16 | 169 | 3.2 | 4.8 | 0.00 | 0.00 | 0.00 | 86 | 1019.7 |
| 20260509144226 | 16 | 157 | 3.2 | 6.4 | 0.00 | 0.00 | 0.00 | 86 | 1019.9 |
| 20260509141226 | 16 | 163 | 3.2 | 6.4 | 0.00 | 0.00 | 0.00 | 86 | 1020.0 |
| 20260509134226 | 17 | 145 | 1.6 | 4.8 | 0.00 | 0.00 | 0.00 | 85 | 1020.4 |
| 20260509131226 | 17 | 162 | 1.6 | 4.8 | 0.00 | 0.00 | 0.00 | 84 | 1020.7 |
| 20260509124226 | 17 | 161 | 3.2 | 6.4 | 0.00 | 0.00 | 0.00 | 84 | 1020.6 |
| 20260509121226 | 17 | 167 | 3.2 | 8.0 | 0.00 | 0.00 | 0.00 | 83 | 1020.4 |
| 20260509114226 | 18 | 159 | 3.2 | 6.4 | 0.00 | 0.00 | 0.00 | 82 | 1020.4 |
| 20260509111226 | 18 | 152 | 1.6 | 6.4 | 0.00 | 0.00 | 0.00 | 81 | 1020.4 |
| 20260509104226 | 18 | 166 | 1.6 | 9.7 | 0.00 | 0.00 | 0.00 | 81 | 1020.3 |
| 20260509101226 | 19 | 159 | 1.6 | 4.8 | 0.00 | 0.00 | 0.00 | 80 | 1020.4 |
| 20260509094226 | 19 | 159 | 1.6 | 4.8 | 0.00 | 0.00 | 0.00 | 80 | 1020.2 |
| 20260509091226 | 20 | 141 | 1.6 | 4.8 | 0.00 | 0.00 | 0.00 | 79 | 1019.8 |
| 20260509084226 | 20 | 135 | 1.6 | 6.4 | 0.00 | 0.00 | 0.00 | 77 | 1019.2 |
| 20260509081226 | 20 | 138 | 1.6 | 6.4 | 0.00 | 0.00 | 0.00 | 76 | 1019.1 |
| 20260509074226 | 21 | 135 | 3.2 | 6.4 | 0.00 | 0.00 | 0.00 | 73 | 1018.7 |
| 20260509071226 | 21 | 117 | 1.6 | 6.4 | 0.00 | 0.00 | 0.00 | 69 | 1018.3 |
| 20260509064226 | 22 | 107 | 3.2 | 8.0 | 0.00 | 0.00 | 0.00 | 68 | 1018.0 |
| 20260509061226 | 22 | 121 | 4.8 | 9.7 | 0.00 | 0.00 | 0.00 | 63 | 1017.7 |
| 20260509054226 | 22 | 106 | 4.8 | 14.5 | 0.00 | 0.00 | 0.00 | 63 | 1017.7 |
| 20260509051226 | 23 | 116 | 4.8 | 9.7 | 0.00 | 0.00 | 0.00 | 64 | 1017.5 |
| 20260509044226 | 23 | 117 | 4.8 | 8.0 | 0.00 | 0.00 | 0.00 | 64 | 1017.3 |
| 20260509041226 | 23 | 117 | 4.8 | 12.9 | 0.00 | 0.00 | 0.00 | 61 | 1017.3 |